createdAt,value
2023-03-06T00:02:24.405Z,18.20
2023-03-06T00:05:46.963Z,18.30
2023-03-06T00:09:09.878Z,18.20
2023-03-06T00:12:32.064Z,18.20
2023-03-06T00:15:54.362Z,18.20
2023-03-06T00:19:16.690Z,18.20
2023-03-06T00:22:39.243Z,18.20
2023-03-06T00:26:01.314Z,18.20
2023-03-06T00:29:23.504Z,18.20
2023-03-06T00:32:45.666Z,18.20
2023-03-06T00:36:08.113Z,18.20
2023-03-06T00:39:30.321Z,18.20
2023-03-06T00:42:52.468Z,18.20
2023-03-06T00:46:15.097Z,18.20
2023-03-06T00:49:37.325Z,18.20
2023-03-06T00:52:59.405Z,18.20
2023-03-06T00:56:21.686Z,18.20
2023-03-06T00:59:43.854Z,18.20
2023-03-06T01:03:06.045Z,18.20
2023-03-06T01:06:28.376Z,18.20
2023-03-06T01:09:50.621Z,18.20
2023-03-06T01:13:12.816Z,18.20
2023-03-06T01:16:35.336Z,18.20
2023-03-06T01:19:57.601Z,18.20
2023-03-06T01:23:19.763Z,18.20
2023-03-06T01:26:42.662Z,18.20
2023-03-06T01:30:05.242Z,18.20
2023-03-06T01:33:27.454Z,18.20
2023-03-06T01:36:49.720Z,18.10
2023-03-06T01:40:12.530Z,18.10
2023-03-06T01:43:35.872Z,18.20
2023-03-06T01:46:58.001Z,18.10
2023-03-06T01:50:20.453Z,18.20
2023-03-06T01:53:43.620Z,18.20
2023-03-06T01:57:09.834Z,18.10
2023-03-06T02:00:31.944Z,18.10
2023-03-06T02:03:55.169Z,18.10
2023-03-06T02:07:19.712Z,18.00
2023-03-06T02:10:43.595Z,18.00
2023-03-06T02:14:05.750Z,18.00
2023-03-06T02:17:28.090Z,18.00
2023-03-06T02:20:52.133Z,18.00
2023-03-06T02:24:17.291Z,18.00
2023-03-06T02:27:39.608Z,18.00
2023-03-06T02:31:02.181Z,18.00
2023-03-06T02:34:24.362Z,18.00
2023-03-06T02:37:46.880Z,18.00
2023-03-06T02:41:10.539Z,18.00
2023-03-06T02:44:33.948Z,18.00
2023-03-06T02:47:56.057Z,18.00
2023-03-06T02:51:18.315Z,18.00
2023-03-06T02:54:40.833Z,18.00
2023-03-06T02:58:03.543Z,18.00
2023-03-06T03:01:26.158Z,17.90
2023-03-06T03:04:48.667Z,18.00
2023-03-06T03:08:12.566Z,17.90
2023-03-06T03:11:34.863Z,17.90
2023-03-06T03:14:57.405Z,17.90
2023-03-06T03:18:19.617Z,17.90
2023-03-06T03:21:42.987Z,17.90
2023-03-06T03:25:05.794Z,18.00
2023-03-06T03:28:28.050Z,17.90
2023-03-06T03:31:50.466Z,17.90
2023-03-06T03:35:12.898Z,17.90
2023-03-06T03:38:36.293Z,17.90
2023-03-06T03:41:58.688Z,17.90
2023-03-06T03:45:21.094Z,17.90
2023-03-06T03:48:43.958Z,17.90
2023-03-06T03:52:06.367Z,17.90
2023-03-06T03:55:30.310Z,17.90
2023-03-06T03:58:53.238Z,17.90
2023-03-06T04:02:16.093Z,17.90
2023-03-06T04:05:49.497Z,17.90
2023-03-06T04:09:12.347Z,17.90
2023-03-06T04:12:34.961Z,17.90
2023-03-06T04:15:57.338Z,17.90
2023-03-06T04:19:19.670Z,17.90
2023-03-06T04:22:42.252Z,17.90
2023-03-06T04:26:06.372Z,17.90
2023-03-06T04:29:28.689Z,17.90
2023-03-06T04:32:51.142Z,17.90
2023-03-06T04:36:30.229Z,17.90
2023-03-06T04:39:56.934Z,17.90
2023-03-06T04:43:19.201Z,17.90
2023-03-06T04:46:41.410Z,17.90
2023-03-06T04:50:04.429Z,17.80
2023-03-06T04:53:26.954Z,17.90
2023-03-06T04:56:49.067Z,17.80
2023-03-06T05:00:15.779Z,17.80
2023-03-06T05:03:38.147Z,17.80
2023-03-06T05:07:00.344Z,17.90
2023-03-06T05:10:22.670Z,17.90
2023-03-06T05:13:44.905Z,17.90
2023-03-06T05:17:07.034Z,17.90
2023-03-06T05:20:29.301Z,18.00
2023-03-06T05:23:51.465Z,18.00
2023-03-06T05:27:16.537Z,18.00
2023-03-06T05:30:39.715Z,18.10
2023-03-06T05:34:01.922Z,18.10
2023-03-06T05:37:24.370Z,18.20
2023-03-06T05:40:46.760Z,18.30
2023-03-06T05:44:08.921Z,18.30
2023-03-06T05:47:31.419Z,18.40
2023-03-06T05:50:57.433Z,18.40
2023-03-06T05:54:19.589Z,18.40
2023-03-06T05:57:41.763Z,18.50
2023-03-06T06:01:11.599Z,18.50
2023-03-06T06:04:33.707Z,18.50
2023-03-06T06:07:55.909Z,18.50
2023-03-06T06:11:18.535Z,18.50
2023-03-06T06:14:40.711Z,18.50
2023-03-06T06:18:02.918Z,18.60
2023-03-06T06:21:25.077Z,18.60
2023-03-06T06:24:47.271Z,18.60
2023-03-06T06:28:09.405Z,18.60
2023-03-06T06:31:31.624Z,18.60
2023-03-06T06:34:53.914Z,18.60
2023-03-06T06:38:16.316Z,18.60
2023-03-06T06:41:55.258Z,18.60
2023-03-06T06:45:20.594Z,18.60
2023-03-06T06:48:42.807Z,18.60
2023-03-06T06:52:05.687Z,18.60
2023-03-06T06:55:27.880Z,18.70
2023-03-06T06:58:52.187Z,18.70
2023-03-06T07:02:15.896Z,18.70
2023-03-06T07:05:38.373Z,18.70
2023-03-06T07:09:00.575Z,18.80
2023-03-06T07:12:22.833Z,18.90
2023-03-06T07:15:45.029Z,18.90
2023-03-06T07:19:07.743Z,18.90
2023-03-06T07:22:33.864Z,18.90
2023-03-06T07:26:04.097Z,18.90
2023-03-06T07:29:26.242Z,18.90
2023-03-06T07:32:48.369Z,18.90
2023-03-06T07:36:12.770Z,19.00
2023-03-06T07:39:35.909Z,18.90
2023-03-06T07:43:12.949Z,19.00
2023-03-06T07:46:44.092Z,19.00
2023-03-06T07:50:07.363Z,18.90
2023-03-06T07:53:29.994Z,18.80
2023-03-06T07:56:52.640Z,18.70
2023-03-06T08:00:15.925Z,18.70
2023-03-06T08:03:38.195Z,18.60
2023-03-06T08:07:00.465Z,18.60
2023-03-06T08:10:22.787Z,18.60
2023-03-06T08:13:45.191Z,18.60
2023-03-06T08:17:07.338Z,18.60
2023-03-06T08:20:29.671Z,18.50
2023-03-06T08:23:52.062Z,18.50
2023-03-06T08:27:14.159Z,18.50
2023-03-06T08:30:36.290Z,18.50
2023-03-06T08:33:59.888Z,18.50
2023-03-06T08:37:22.103Z,18.50
2023-03-06T08:40:44.273Z,18.50
2023-03-06T08:44:06.761Z,18.50
2023-03-06T08:47:28.941Z,18.40
2023-03-06T08:50:51.545Z,18.40
2023-03-06T08:54:13.737Z,18.40
2023-03-06T08:57:36.800Z,18.40
2023-03-06T09:00:59.345Z,18.50
2023-03-06T09:04:21.648Z,18.50
2023-03-06T09:07:43.910Z,18.50
2023-03-06T09:11:06.134Z,18.50
2023-03-06T09:14:28.304Z,18.50
2023-03-06T09:17:50.982Z,18.60
2023-03-06T09:21:13.193Z,18.50
2023-03-06T09:24:35.422Z,18.60
2023-03-06T09:28:10.400Z,18.60
2023-03-06T09:31:33.743Z,18.50
2023-03-06T09:34:55.922Z,18.50
2023-03-06T09:38:18.639Z,18.50
2023-03-06T09:41:41.617Z,18.50
2023-03-06T09:45:06.216Z,18.50
2023-03-06T09:48:41.787Z,18.40
2023-03-06T09:52:03.954Z,18.40
2023-03-06T09:55:27.302Z,18.40
2023-03-06T09:58:55.945Z,18.40
2023-03-06T10:02:22.441Z,18.40
2023-03-06T10:05:47.122Z,18.50
2023-03-06T10:09:12.402Z,18.50
2023-03-06T10:12:41.029Z,18.50
2023-03-06T10:16:26.337Z,18.60
2023-03-06T10:19:49.378Z,18.60
2023-03-06T10:23:20.833Z,18.50
2023-03-06T10:26:48.310Z,18.50
2023-03-06T10:30:13.710Z,18.50
2023-03-06T10:33:50.999Z,18.50
2023-03-06T10:37:18.623Z,18.50
2023-03-06T10:40:59.730Z,18.40
2023-03-06T10:44:23.441Z,18.50
2023-03-06T10:47:46.447Z,18.50
2023-03-06T10:51:19.573Z,18.50
2023-03-06T10:54:43.167Z,18.50
2023-03-06T10:58:34.777Z,18.50
2023-03-06T11:01:58.271Z,18.50
2023-03-06T11:05:21.075Z,18.50
2023-03-06T11:08:44.471Z,18.50
2023-03-06T11:12:16.061Z,18.40
2023-03-06T11:15:38.369Z,18.50
2023-03-06T11:19:02.468Z,18.50
2023-03-06T11:22:24.697Z,18.40
2023-03-06T11:26:02.719Z,18.40
2023-03-06T11:29:24.908Z,18.50
2023-03-06T11:32:59.104Z,18.50
2023-03-06T11:36:36.162Z,18.60
2023-03-06T11:40:01.045Z,18.60
2023-03-06T11:43:28.086Z,18.60
2023-03-06T11:46:59.173Z,18.70
2023-03-06T11:50:39.847Z,18.70
2023-03-06T11:54:02.438Z,18.80
2023-03-06T11:57:45.866Z,18.80
2023-03-06T12:01:22.484Z,18.80
2023-03-06T12:04:55.783Z,18.90
2023-03-06T12:08:18.571Z,18.90
2023-03-06T12:11:59.124Z,18.90
2023-03-06T12:15:39.580Z,18.90
2023-03-06T12:19:20.585Z,18.90
2023-03-06T12:22:57.510Z,18.80
2023-03-06T12:26:24.707Z,18.80
2023-03-06T12:29:46.821Z,18.70
2023-03-06T12:33:24.274Z,18.70
2023-03-06T12:36:52.394Z,18.70
2023-03-06T12:40:20.691Z,18.70
2023-03-06T12:43:51.249Z,18.60
2023-03-06T12:47:16.976Z,18.60
2023-03-06T12:50:39.895Z,18.60
2023-03-06T12:54:03.165Z,18.50
2023-03-06T12:57:25.737Z,18.50
2023-03-06T13:01:04.945Z,18.40
2023-03-06T13:04:45.732Z,18.40
2023-03-06T13:08:13.813Z,18.40
2023-03-06T13:11:54.834Z,18.40
2023-03-06T13:15:37.214Z,18.30
2023-03-06T13:19:04.129Z,18.20
2023-03-06T13:22:27.976Z,18.20
2023-03-06T13:25:50.298Z,18.10
2023-03-06T13:29:35.812Z,18.10
2023-03-06T13:32:57.911Z,18.10
2023-03-06T13:36:23.474Z,18.00
2023-03-06T13:39:54.596Z,18.00
2023-03-06T13:43:18.897Z,18.10
2023-03-06T13:46:41.044Z,18.10
2023-03-06T13:50:17.418Z,18.10
2023-03-06T13:53:44.475Z,18.10
2023-03-06T13:57:09.765Z,18.10
2023-03-06T14:00:47.149Z,18.10
2023-03-06T14:04:09.518Z,18.10
2023-03-06T14:07:42.570Z,18.10
2023-03-06T14:11:06.812Z,18.10
2023-03-06T14:14:34.702Z,18.10
2023-03-06T14:18:02.615Z,18.00
2023-03-06T14:21:30.973Z,18.10
2023-03-06T14:25:13.508Z,18.10
2023-03-06T14:28:36.045Z,18.10
2023-03-06T14:31:59.342Z,18.10
2023-03-06T14:35:26.061Z,18.10
2023-03-06T14:38:50.268Z,18.10
2023-03-06T14:42:27.745Z,18.10
2023-03-06T14:45:49.914Z,18.20
2023-03-06T14:49:13.902Z,18.20
2023-03-06T14:52:36.138Z,18.10
2023-03-06T14:56:00.390Z,18.10
2023-03-06T14:59:25.893Z,18.10
2023-03-06T15:02:48.854Z,18.10
2023-03-06T15:06:15.548Z,18.10
2023-03-06T15:09:38.553Z,18.10
2023-03-06T15:13:23.371Z,18.00
2023-03-06T15:16:45.646Z,18.00
2023-03-06T15:20:27.935Z,18.00
2023-03-06T15:23:51.124Z,18.00
2023-03-06T15:27:17.654Z,18.00
2023-03-06T15:30:39.859Z,18.00
2023-03-06T15:34:02.059Z,18.00
2023-03-06T15:37:26.688Z,18.00
2023-03-06T15:41:00.003Z,18.00
2023-03-06T15:44:22.187Z,18.00
2023-03-06T15:47:44.954Z,18.10
2023-03-06T15:51:07.339Z,18.20
2023-03-06T15:54:31.880Z,18.20
2023-03-06T15:57:59.830Z,18.30
2023-03-06T16:01:22.393Z,18.40
2023-03-06T16:04:45.090Z,18.50
2023-03-06T16:08:07.400Z,18.50
2023-03-06T16:11:38.644Z,18.60
2023-03-06T16:15:06.522Z,18.60
2023-03-06T16:18:28.727Z,18.70
2023-03-06T16:21:53.883Z,18.70
2023-03-06T16:25:17.049Z,18.70
2023-03-06T16:28:41.308Z,18.80
2023-03-06T16:35:27.264Z,18.80
2023-03-06T16:38:49.818Z,18.80
2023-03-06T16:42:12.013Z,18.90
2023-03-06T16:45:43.529Z,18.90
2023-03-06T16:49:05.967Z,18.90
2023-03-06T16:52:28.065Z,18.90
2023-03-06T16:55:50.451Z,18.90
2023-03-06T16:59:12.838Z,18.90
2023-03-06T17:02:35.053Z,19.00
2023-03-06T17:05:57.219Z,19.00
2023-03-06T17:09:19.426Z,19.00
2023-03-06T17:12:41.974Z,19.00
2023-03-06T17:16:04.587Z,18.80
2023-03-06T17:19:27.027Z,18.70
2023-03-06T17:22:29.185Z,18.80
2023-03-06T17:25:31.502Z,18.90
2023-03-06T17:28:34.085Z,19.00
2023-03-06T17:31:35.906Z,19.00
2023-03-06T17:34:37.984Z,19.00
2023-03-06T17:37:40.029Z,19.00
2023-03-06T17:40:42.259Z,19.00
2023-03-06T17:43:44.097Z,19.00
2023-03-06T17:46:46.420Z,19.00
2023-03-06T17:49:48.379Z,19.00
2023-03-06T17:52:50.586Z,19.00
2023-03-06T17:55:52.716Z,19.00
2023-03-06T17:58:55.340Z,19.00
2023-03-06T18:01:57.863Z,19.00
2023-03-06T18:04:59.870Z,18.90
2023-03-06T18:08:02.116Z,18.90
2023-03-06T18:11:05.189Z,18.90
2023-03-06T18:14:07.229Z,18.90
2023-03-06T18:17:09.102Z,18.90
2023-03-06T18:20:11.558Z,18.90
2023-03-06T18:23:13.498Z,18.90
2023-03-06T18:26:33.374Z,18.90
2023-03-06T18:29:35.332Z,18.80
2023-03-06T18:32:37.505Z,18.80
2023-03-06T18:35:40.710Z,18.80
2023-03-06T18:38:44.038Z,18.90
2023-03-06T18:41:46.167Z,18.80
2023-03-06T18:44:48.351Z,18.90
2023-03-06T18:47:50.553Z,19.00
2023-03-06T18:50:52.639Z,19.10
2023-03-06T18:53:58.259Z,19.10
2023-03-06T18:57:00.745Z,19.10
2023-03-06T19:00:03.187Z,19.10
2023-03-06T19:03:05.278Z,19.20
2023-03-06T19:06:08.624Z,19.10
2023-03-06T19:09:11.380Z,19.20
2023-03-06T19:12:13.421Z,19.20
2023-03-06T19:15:15.591Z,19.20
2023-03-06T19:18:18.080Z,19.20
2023-03-06T19:21:21.366Z,19.30
2023-03-06T19:24:23.281Z,19.30
2023-03-06T19:27:25.149Z,19.40
2023-03-06T19:30:27.009Z,19.40
2023-03-06T19:33:28.873Z,19.40
2023-03-06T19:36:33.925Z,19.40
2023-03-06T19:39:35.945Z,19.30
2023-03-06T19:42:37.927Z,19.30
2023-03-06T19:45:46.181Z,19.30
2023-03-06T19:48:48.065Z,19.40
2023-03-06T19:51:50.172Z,19.40
2023-03-06T19:54:52.558Z,19.40
2023-03-06T19:57:54.598Z,19.30
2023-03-06T20:01:02.992Z,19.30
2023-03-06T20:04:05.125Z,19.20
2023-03-06T20:07:07.295Z,19.20
2023-03-06T20:10:09.821Z,19.20
2023-03-06T20:13:30.434Z,19.20
2023-03-06T20:16:52.603Z,19.20
2023-03-06T20:20:14.775Z,19.20
2023-03-06T20:23:36.987Z,19.20
2023-03-06T20:26:59.512Z,19.20
2023-03-06T20:30:21.639Z,19.20
2023-03-06T20:33:45.053Z,19.10
2023-03-06T20:37:08.013Z,19.10
2023-03-06T20:40:30.469Z,19.10
2023-03-06T20:43:52.986Z,19.10
2023-03-06T20:47:15.543Z,19.10
2023-03-06T20:50:37.661Z,19.10
2023-03-06T20:54:01.072Z,19.10
2023-03-06T20:57:23.393Z,19.10
2023-03-06T21:00:45.588Z,19.10
2023-03-06T21:04:09.768Z,19.10
2023-03-06T21:07:31.954Z,19.00
2023-03-06T21:10:54.109Z,19.00
2023-03-06T21:14:16.434Z,18.90
2023-03-06T21:17:38.805Z,19.00
2023-03-06T21:21:04.769Z,19.00
2023-03-06T21:24:26.974Z,18.90
2023-03-06T21:27:49.262Z,19.00
2023-03-06T21:31:12.957Z,18.90
2023-03-06T21:34:35.153Z,18.90
2023-03-06T21:37:57.277Z,18.90
2023-03-06T21:41:21.137Z,18.90
2023-03-06T21:44:43.762Z,18.90
2023-03-06T21:48:06.068Z,18.90
2023-03-06T21:51:28.381Z,18.90
2023-03-06T21:54:50.566Z,18.80
2023-03-06T21:58:12.773Z,18.60
2023-03-06T22:01:35.022Z,18.60
2023-03-06T22:04:57.190Z,18.60
2023-03-06T22:08:28.169Z,18.50
2023-03-06T22:11:50.376Z,18.50
2023-03-06T22:15:12.663Z,18.50
2023-03-06T22:18:35.261Z,18.50
2023-03-06T22:21:57.525Z,18.60
2023-03-06T22:25:19.602Z,18.70
2023-03-06T22:28:42.153Z,18.70
2023-03-06T22:32:04.455Z,18.70
2023-03-06T22:35:26.794Z,18.60
2023-03-06T22:38:49.338Z,18.60
2023-03-06T22:42:11.568Z,18.60
2023-03-06T22:45:34.757Z,18.60
2023-03-06T22:48:57.637Z,18.60
2023-03-06T22:52:19.790Z,18.60
2023-03-06T22:55:41.921Z,18.60
2023-03-06T22:59:04.397Z,18.60
2023-03-06T23:02:31.700Z,18.60
2023-03-06T23:05:53.834Z,18.50
2023-03-06T23:09:19.862Z,18.50
2023-03-06T23:13:00.633Z,18.50
2023-03-06T23:16:41.656Z,18.60
2023-03-06T23:20:22.576Z,18.50
2023-03-06T23:24:03.394Z,18.50
2023-03-06T23:27:25.638Z,18.50
2023-03-06T23:30:47.847Z,18.50
2023-03-06T23:34:11.484Z,18.50
2023-03-06T23:37:33.633Z,18.50
2023-03-06T23:40:56.446Z,18.50
2023-03-06T23:44:18.801Z,18.40
2023-03-06T23:47:40.917Z,18.50
2023-03-06T23:51:10.276Z,18.50
2023-03-06T23:54:34.274Z,18.50
2023-03-06T23:57:56.590Z,18.40
